Time;durP1;ratioP1;P1;durP2;ratioP2;P2;SDS_P1;SDS_P2;PMS_P1;PMS_P2;Temp;Humidity;BMP_temperature;BMP_pressure;BME280_temperature;BME280_humidity;BME280_pressure;Samples;Min_cycle;Max_cycle;Signal;HPM_P1;HPM_P2
2022/01/25 00:08:23;;;;;;;54.80;32.67;;;3.80;99.90;;;;;;5094128;28;20059;-66
2022/01/25 00:15:13;;;;;;;63.00;36.95;;;3.80;99.90;;;;;;5093938;28;20052;-69
2022/01/25 00:28:51;;;;;;;62.72;35.42;;;3.80;99.90;;;;;;5092665;28;20048;-68
2022/01/25 00:31:17;;;;;;;58.33;34.42;;;3.80;99.90;;;;;;5093145;28;20480;-70
2022/01/25 00:33:52;;;;;;;59.40;35.35;;;3.80;99.90;;;;;;5092843;28;20044;-69
2022/01/25 00:36:21;;;;;;;57.17;33.45;;;3.80;99.90;;;;;;5093599;28;20040;-71
2022/01/25 00:38:47;;;;;;;60.88;34.47;;;3.80;99.90;;;;;;5093013;28;20048;-70
2022/01/25 00:41:13;;;;;;;59.42;34.25;;;3.80;99.90;;;;;;5093291;28;20392;-68
2022/01/25 00:43:39;;;;;;;60.25;33.72;;;3.80;99.90;;;;;;5092714;28;20048;-68
2022/01/25 00:46:09;;;;;;;59.63;34.92;;;3.80;99.90;;;;;;5092364;28;20063;-71
2022/01/25 00:51:20;;;;;;;63.03;35.22;;;3.70;99.90;;;;;;5110002;27;20053;-67
2022/01/25 00:56:19;;;;;;;60.08;34.08;;;3.70;99.90;;;;;;5093012;28;20083;-67
2022/01/25 00:58:44;;;;;;;61.25;34.58;;;3.80;99.90;;;;;;5093478;28;20501;-69
2022/01/25 01:01:10;;;;;;;59.75;33.80;;;3.70;99.90;;;;;;5092463;28;20487;-69
2022/01/25 01:03:36;;;;;;;60.95;35.45;;;3.70;99.90;;;;;;5092707;28;20040;-68
2022/01/25 01:06:04;;;;;;;62.95;35.17;;;3.70;99.90;;;;;;5075254;28;20088;-70
2022/01/25 01:08:29;;;;;;;60.90;36.47;;;3.70;99.90;;;;;;5075548;28;20044;-67
2022/01/25 01:10:57;;;;;;;60.67;34.88;;;3.70;99.90;;;;;;5092273;28;20048;-68
2022/01/25 01:37:48;;;;;;;61.92;34.90;;;3.70;99.90;;;;;;5092233;28;20438;-68
2022/01/25 01:40:48;;;;;;;61.97;36.22;;;3.70;99.90;;;;;;5091944;28;20416;-69
2022/01/25 01:48:53;;;;;;;62.97;36.22;;;3.70;99.90;;;;;;5091758;28;20044;-69
2022/01/25 01:51:26;;;;;;;;;;;3.70;99.90;;;;;;5092563;28;20085;-70
2022/01/25 01:53:54;;;;;;;61.65;34.25;;;3.70;99.90;;;;;;5093505;28;20308;-69
2022/01/25 01:56:20;;;;;;;64.35;34.53;;;3.70;99.90;;;;;;5074771;28;20062;-70
2022/01/25 01:58:45;;;;;;;64.63;36.17;;;3.80;99.90;;;;;;5092348;28;20519;-70
2022/01/25 02:01:17;;;;;;;59.90;34.38;;;3.70;99.90;;;;;;5091093;28;20101;-67
2022/01/25 02:03:44;;;;;;;62.65;36.88;;;3.70;99.90;;;;;;5092108;28;20048;-69
2022/01/25 02:06:09;;;;;;;59.75;34.88;;;3.70;99.90;;;;;;5091930;28;20481;-71
2022/01/25 02:08:35;;;;;;;67.47;36.50;;;3.70;99.90;;;;;;5091498;28;20079;-69
2022/01/25 02:11:02;;;;;;;66.82;36.30;;;3.60;99.90;;;;;;5091470;28;20082;-69
2022/01/25 02:13:28;;;;;;;62.70;35.13;;;3.70;99.90;;;;;;5091500;28;20055;-69
2022/01/25 02:15:56;;;;;;;60.05;34.10;;;3.70;99.90;;;;;;5091924;28;20044;-70
2022/01/25 02:23:41;;;;;;;61.67;33.22;;;3.60;99.90;;;;;;5092873;28;20113;-69
2022/01/25 02:26:08;;;;;;;59.15;32.67;;;3.60;99.90;;;;;;5091633;28;20048;-69
2022/01/25 02:28:38;;;;;;;62.17;35.97;;;3.70;99.90;;;;;;5091744;28;20044;-68
2022/01/25 02:31:05;;;;;;;65.28;35.30;;;3.70;99.90;;;;;;5092711;28;20213;-69
2022/01/25 02:33:31;;;;;;;63.92;35.17;;;3.70;99.90;;;;;;5093395;28;20388;-70
2022/01/25 02:36:00;;;;;;;62.28;34.80;;;3.60;99.90;;;;;;5091536;28;20173;-69
2022/01/25 02:38:29;;;;;;;61.55;34.03;;;3.60;99.90;;;;;;5092862;28;20135;-69
2022/01/25 02:40:56;;;;;;;64.75;36.65;;;3.60;99.90;;;;;;5090572;28;20054;-69
2022/01/25 02:43:22;;;;;;;63.78;36.53;;;3.60;99.90;;;;;;5091503;28;20048;-70
2022/01/25 02:48:31;;;;;;;69.88;39.53;;;3.60;99.90;;;;;;5091559;28;20121;-68
2022/01/25 02:51:01;;;;;;;62.10;36.78;;;3.60;99.90;;;;;;5091002;28;20059;-68
2022/01/25 02:53:28;;;;;;;62.03;36.17;;;3.60;99.90;;;;;;5091683;28;20062;-70
2022/01/25 02:55:55;;;;;;;63.33;35.17;;;3.60;99.90;;;;;;5091177;28;20113;-69
2022/01/25 02:58:21;;;;;;;61.10;34.72;;;3.60;99.90;;;;;;5091652;28;20069;-69
2022/01/25 03:00:47;;;;;;;64.38;36.45;;;3.60;99.90;;;;;;5090689;28;20064;-70
2022/01/25 03:03:13;;;;;;;68.13;37.17;;;3.50;99.90;;;;;;5091401;28;20056;-69
2022/01/25 03:05:38;;;;;;;65.03;36.03;;;3.50;99.90;;;;;;5090961;28;20040;-69
2022/01/25 03:08:05;;;;;;;63.97;36.10;;;3.50;99.90;;;;;;5091557;28;20082;-68
2022/01/25 03:10:41;;;;;;;63.72;33.92;;;3.50;99.90;;;;;;5093978;28;20122;-67
2022/01/25 03:13:13;;;;;;;67.85;36.08;;;3.50;99.90;;;;;;5094905;28;20054;-67
2022/01/25 03:16:04;;;;;;;66.05;35.17;;;3.50;99.90;;;;;;5095084;28;20167;-68
2022/01/25 03:21:15;;;;;;;62.95;36.08;;;3.50;99.90;;;;;;5094591;28;20043;-69
2022/01/25 03:23:41;;;;;;;66.30;35.42;;;3.50;99.90;;;;;;5095033;28;20547;-68
2022/01/25 03:26:07;;;;;;;60.63;33.63;;;3.50;99.90;;;;;;5094399;28;20106;-68
2022/01/25 03:28:33;;;;;;;58.20;32.45;;;3.50;99.90;;;;;;5094464;28;20056;-68
2022/01/25 03:30:59;;;;;;;61.88;35.63;;;3.50;99.90;;;;;;5094476;28;20052;-68
2022/01/25 03:33:24;;;;;;;59.45;33.78;;;3.50;99.90;;;;;;5094919;28;20048;-67
2022/01/25 03:35:50;;;;;;;62.45;34.05;;;3.50;99.90;;;;;;5094440;28;20442;-70
2022/01/25 03:38:16;;;;;;;59.72;33.45;;;3.50;99.90;;;;;;5094727;28;20059;-67
2022/01/25 03:40:42;;;;;;;63.10;34.67;;;3.50;99.90;;;;;;5094034;28;20519;-68
2022/01/25 03:43:09;;;;;;;64.05;34.95;;;3.50;99.90;;;;;;5094123;28;20044;-67
2022/01/25 03:45:37;;;;;;;64.90;35.45;;;3.50;99.90;;;;;;5095243;28;20044;-70
2022/01/25 03:50:44;;;;;;;61.08;35.42;;;3.50;99.90;;;;;;5094160;28;20452;-67
2022/01/25 03:53:12;;;;;;;63.20;35.22;;;3.50;99.90;;;;;;5093928;28;20102;-71
2022/01/25 03:55:38;;;;;;;65.38;33.55;;;3.50;99.90;;;;;;5093569;28;20485;-68
2022/01/25 03:58:04;;;;;;;65.30;35.45;;;3.50;99.90;;;;;;5093917;28;20055;-68
2022/01/25 04:00:30;;;;;;;61.38;34.25;;;3.50;99.90;;;;;;5095620;28;20418;-67
2022/01/25 04:03:48;;;;;;;60.97;33.85;;;3.50;99.90;;;;;;5093631;28;20400;-67
2022/01/25 04:08:11;;;;;;;65.82;34.97;;;3.50;99.90;;;;;;5093991;28;20063;-68
2022/01/25 04:10:39;;;;;;;62.60;33.45;;;3.50;99.90;;;;;;5093179;28;20507;-70
2022/01/25 04:13:05;;;;;;;65.38;34.63;;;3.50;99.90;;;;;;5093863;28;20147;-69
2022/01/25 04:15:31;;;;;;;60.28;33.22;;;3.50;99.90;;;;;;5093944;28;20054;-71
2022/01/25 04:20:44;;;;;;;65.35;33.97;;;3.50;99.90;;;;;;5092409;28;20048;-68
2022/01/25 04:25:53;;;;;;;67.40;34.55;;;3.50;99.90;;;;;;5093603;28;20056;-67
2022/01/25 04:28:19;;;;;;;62.38;33.35;;;3.50;99.90;;;;;;5094088;28;20135;-68
2022/01/25 04:30:44;;;;;;;62.95;35.22;;;3.50;99.90;;;;;;5092986;28;20404;-69
2022/01/25 04:33:24;;;;;;;59.03;31.92;;;3.50;99.90;;;;;;5093034;28;20056;-69
2022/01/25 04:36:08;;;;;;;63.50;33.97;;;3.50;99.90;;;;;;5093053;28;20048;-70
2022/01/25 04:49:32;;;;;;;60.00;33.47;;;3.50;99.90;;;;;;5092814;28;20056;-71
2022/01/25 04:52:04;;;;;;;60.25;32.25;;;3.50;99.90;;;;;;5093187;28;20098;-68
2022/01/25 04:57:22;;;;;;;59.33;31.38;;;3.50;99.90;;;;;;5094525;28;20091;-68
2022/01/25 05:00:05;;;;;;;59.78;33.35;;;3.50;99.90;;;;;;5092727;28;20044;-69
2022/01/25 05:03:48;;;;;;;64.13;34.30;;;3.60;99.90;;;;;;5092455;28;20127;-69
2022/01/25 05:05:32;;;;;;;61.65;33.33;;;3.60;99.90;;;;;;5072739;28;20052;-66
2022/01/25 05:10:37;;;;;;;60.58;34.72;;;3.50;99.90;;;;;;5072733;28;20456;-70
2022/01/25 05:16:04;;;;;;;60.65;34.08;;;3.50;99.90;;;;;;5072103;28;20057;-70
2022/01/25 05:18:49;;;;;;;58.92;33.03;;;3.50;99.90;;;;;;5075723;28;20488;-68
2022/01/25 05:23:58;;;;;;;61.08;32.33;;;3.50;99.90;;;;;;5092142;28;20052;-67
2022/01/25 05:26:26;;;;;;;63.75;33.42;;;3.50;99.90;;;;;;5092305;28;20126;-69
2022/01/25 05:28:51;;;;;;;62.13;35.05;;;3.50;99.90;;;;;;5092278;28;20063;-70
2022/01/25 05:31:17;;;;;;;59.80;33.50;;;3.50;99.90;;;;;;5092360;28;20396;-69
2022/01/25 05:33:43;;;;;;;64.10;34.47;;;3.50;99.90;;;;;;5093112;28;20044;-69
2022/01/25 05:36:09;;;;;;;62.25;33.35;;;3.50;99.90;;;;;;5092530;28;20078;-69
2022/01/25 05:38:34;;;;;;;66.38;34.80;;;3.50;99.90;;;;;;5093260;28;20054;-67
2022/01/25 05:41:02;;;;;;;61.60;33.38;;;3.60;99.90;;;;;;5091851;28;20051;-69
2022/01/25 05:46:03;;;;;;;63.60;32.70;;;3.40;99.90;;;;;;5091386;28;20103;-69
2022/01/25 05:48:30;;;;;;;63.63;33.92;;;3.40;99.90;;;;;;5091779;28;20040;-68
2022/01/25 05:50:56;;;;;;;62.92;33.20;;;3.50;99.90;;;;;;5092187;28;20120;-71
2022/01/25 05:53:22;;;;;;;64.40;33.30;;;3.50;99.90;;;;;;5091900;28;20113;-71
2022/01/25 05:55:48;;;;;;;62.25;33.00;;;3.50;99.90;;;;;;5092163;28;20439;-70
2022/01/25 05:58:14;;;;;;;66.18;33.88;;;3.50;99.90;;;;;;5092335;28;20541;-67
2022/01/25 06:00:40;;;;;;;61.95;32.40;;;3.50;99.90;;;;;;5091972;28;20322;-67
2022/01/25 06:03:07;;;;;;;62.40;33.25;;;3.50;99.90;;;;;;5090810;28;20055;-68
2022/01/25 06:05:34;;;;;;;64.95;33.80;;;3.60;99.90;;;;;;5092259;28;20152;-67
2022/01/25 06:08:00;;;;;;;67.03;34.50;;;3.50;99.90;;;;;;5091651;28;20078;-67
2022/01/25 06:10:25;;;;;;;63.65;34.22;;;3.60;99.90;;;;;;5092032;28;20056;-68
2022/01/25 06:12:51;;;;;;;65.53;33.83;;;3.50;99.90;;;;;;5091600;28;20056;-66
2022/01/25 06:15:17;;;;;;;61.78;33.10;;;3.60;99.90;;;;;;5091828;28;20431;-68
2022/01/25 06:17:42;;;;;;;68.38;33.85;;;3.50;99.90;;;;;;5090196;28;20039;-67
2022/01/25 06:20:08;;;;;;;62.35;34.20;;;3.60;99.90;;;;;;5091958;28;20044;-67
2022/01/25 06:22:34;;;;;;;62.65;33.25;;;3.50;99.90;;;;;;5091539;28;20055;-70
2022/01/25 06:25:00;;;;;;;62.22;33.17;;;3.50;99.90;;;;;;5091674;28;20056;-67
2022/01/25 06:27:29;;;;;;;65.95;33.63;;;3.60;99.90;;;;;;5091077;28;20059;-69
2022/01/25 06:29:54;;;;;;;65.50;33.22;;;3.60;99.90;;;;;;5095659;28;20449;-68
2022/01/25 06:32:20;;;;;;;64.53;32.88;;;3.60;99.90;;;;;;5110786;28;20047;-68
2022/01/25 06:34:46;;;;;;;66.60;33.83;;;3.60;99.90;;;;;;5091764;28;20463;-69
2022/01/25 06:37:13;;;;;;;65.82;33.90;;;3.60;99.90;;;;;;5093080;28;20071;-69
2022/01/25 06:39:40;;;;;;;58.60;31.50;;;3.60;99.90;;;;;;5090819;28;20400;-68
2022/01/25 06:42:07;;;;;;;65.28;33.95;;;3.60;99.90;;;;;;5086422;28;20182;-70
2022/01/25 06:44:35;;;;;;;65.32;34.15;;;3.60;99.90;;;;;;5081251;28;20075;-69
2022/01/25 06:47:01;;;;;;;64.43;33.20;;;3.60;99.90;;;;;;5093717;28;20040;-66
2022/01/25 06:49:27;;;;;;;65.47;33.85;;;3.60;99.90;;;;;;5096935;28;20052;-70
2022/01/25 06:51:52;;;;;;;62.30;31.90;;;3.50;99.90;;;;;;5095489;28;20109;-67
2022/01/25 06:54:18;;;;;;;63.28;33.03;;;3.50;99.90;;;;;;5095817;28;20048;-69
2022/01/25 06:56:44;;;;;;;62.80;33.63;;;3.50;99.90;;;;;;5078478;28;20052;-67
2022/01/25 06:59:09;;;;;;;63.67;34.45;;;3.50;99.90;;;;;;5078299;28;20449;-70
2022/01/25 07:01:35;;;;;;;66.93;34.75;;;3.50;99.90;;;;;;5077439;28;20054;-67
2022/01/25 07:04:01;;;;;;;64.95;33.58;;;3.50;99.90;;;;;;5095450;28;20127;-68
2022/01/25 07:06:28;;;;;;;65.93;33.75;;;3.50;99.90;;;;;;5094861;28;20052;-68
2022/01/25 07:08:53;;;;;;;66.10;34.42;;;3.50;99.90;;;;;;5095310;28;20101;-68
2022/01/25 07:11:19;;;;;;;68.45;35.22;;;3.50;99.90;;;;;;5096144;28;20476;-68
2022/01/25 07:13:46;;;;;;;63.72;32.38;;;3.50;99.90;;;;;;5096368;28;20056;-68
2022/01/25 07:16:11;;;;;;;62.30;33.30;;;3.50;99.90;;;;;;5093942;28;20450;-67
2022/01/25 07:18:37;;;;;;;66.55;34.58;;;3.50;99.90;;;;;;5095892;28;20135;-70
2022/01/25 07:21:03;;;;;;;67.80;36.03;;;3.50;99.90;;;;;;5094480;28;20059;-69
2022/01/25 07:23:29;;;;;;;68.07;35.67;;;3.50;99.90;;;;;;5094252;28;20044;-69
2022/01/25 07:25:54;;;;;;;64.30;32.72;;;3.50;99.90;;;;;;5095003;28;20052;-67
2022/01/25 07:28:20;;;;;;;61.10;31.77;;;3.50;99.90;;;;;;5091729;28;20051;-68
2022/01/25 07:30:45;;;;;;;61.03;32.05;;;3.60;99.90;;;;;;5094583;28;20050;-69
2022/01/25 07:33:11;;;;;;;59.13;32.03;;;3.50;99.90;;;;;;5093708;28;20060;-67
2022/01/25 07:35:38;;;;;;;66.50;34.08;;;3.50;99.90;;;;;;5094791;28;20048;-70
2022/01/25 07:38:05;;;;;;;64.65;36.45;;;3.50;99.90;;;;;;5094369;28;20052;-70
2022/01/25 07:40:34;;;;;;;64.43;36.03;;;3.50;99.90;;;;;;5094529;28;20101;-72
2022/01/25 07:42:59;;;;;;;59.70;31.05;;;3.50;99.90;;;;;;5093335;28;20068;-68
2022/01/25 07:45:26;;;;;;;60.97;32.28;;;3.50;99.90;;;;;;5093974;28;20186;-68
2022/01/25 07:47:52;;;;;;;68.45;33.85;;;3.50;99.90;;;;;;5093868;28;20052;-68
2022/01/25 07:50:18;;;;;;;67.07;33.88;;;3.60;99.90;;;;;;5094560;28;20052;-69
2022/01/25 07:52:43;;;;;;;62.58;32.85;;;3.50;99.90;;;;;;5093812;28;20044;-68
2022/01/25 07:55:09;;;;;;;68.68;36.22;;;3.50;99.90;;;;;;5093167;28;20040;-68
2022/01/25 07:57:35;;;;;;;65.93;34.80;;;3.50;99.90;;;;;;5093252;28;20162;-70
2022/01/25 08:00:01;;;;;;;61.90;33.22;;;3.50;99.90;;;;;;5094195;28;20104;-69
2022/01/25 08:02:26;;;;;;;63.60;32.65;;;3.50;99.90;;;;;;5092174;28;20508;-68
2022/01/25 08:04:52;;;;;;;65.50;35.13;;;3.50;99.90;;;;;;5104393;28;20052;-67
2022/01/25 08:07:18;;;;;;;61.05;32.80;;;3.50;99.90;;;;;;5103449;28;20058;-68
2022/01/25 08:09:44;;;;;;;64.88;33.97;;;3.50;99.90;;;;;;5094334;28;20048;-67
2022/01/25 08:12:11;;;;;;;61.95;31.90;;;3.60;99.90;;;;;;5093793;28;20052;-67
2022/01/25 08:14:42;;;;;;;66.82;35.70;;;3.60;99.90;;;;;;5085093;28;20131;-67
2022/01/25 08:17:08;;;;;;;66.22;32.50;;;3.50;99.90;;;;;;5061196;28;20048;-67
2022/01/25 08:19:34;;;;;;;62.28;32.97;;;3.50;99.90;;;;;;5070863;28;20434;-68
2022/01/25 08:22:00;;;;;;;63.45;32.75;;;3.60;99.90;;;;;;5073460;28;20389;-68
2022/01/25 08:24:25;;;;;;;62.78;32.90;;;3.50;99.90;;;;;;5073406;28;20059;-67
2022/01/25 08:26:51;;;;;;;61.40;32.00;;;3.60;99.90;;;;;;5073114;28;20064;-67
2022/01/25 08:29:18;;;;;;;57.90;31.25;;;3.60;99.90;;;;;;5085030;28;20083;-70
2022/01/25 08:31:43;;;;;;;63.85;33.05;;;3.60;99.90;;;;;;5093136;28;20051;-69
2022/01/25 08:34:11;;;;;;;59.50;31.95;;;3.60;99.90;;;;;;5094057;28;20504;-68
2022/01/25 08:36:38;;;;;;;59.17;31.42;;;3.60;99.90;;;;;;5094674;28;20047;-70
2022/01/25 08:39:05;;;;;;;63.97;32.08;;;3.60;99.90;;;;;;5093371;28;20060;-68
2022/01/25 08:41:31;;;;;;;65.43;31.50;;;3.60;99.90;;;;;;5093291;28;20093;-67
2022/01/25 08:43:57;;;;;;;72.20;33.08;;;3.60;99.90;;;;;;5093237;28;20266;-67
2022/01/25 08:46:23;;;;;;;60.35;31.75;;;3.60;99.90;;;;;;5093859;28;20515;-68
2022/01/25 08:48:48;;;;;;;67.30;33.63;;;3.60;99.90;;;;;;5093314;28;20051;-69
2022/01/25 08:51:15;;;;;;;65.22;34.13;;;3.60;99.90;;;;;;5093450;28;20063;-68
2022/01/25 08:53:41;;;;;;;62.85;32.03;;;3.60;99.90;;;;;;5092866;28;20056;-68
2022/01/25 08:56:07;;;;;;;62.80;31.83;;;3.70;99.90;;;;;;5093158;28;20059;-69
2022/01/25 08:58:33;;;;;;;57.63;30.98;;;3.60;99.90;;;;;;5092799;28;20087;-69
2022/01/25 09:00:58;;;;;;;61.10;31.63;;;3.70;99.90;;;;;;5092756;28;20075;-69
2022/01/25 09:03:24;;;;;;;62.25;32.20;;;3.60;99.90;;;;;;5093196;28;20036;-67
2022/01/25 09:05:50;;;;;;;61.30;31.85;;;3.70;99.90;;;;;;5093532;28;20056;-68
2022/01/25 09:08:21;;;;;;;60.33;31.13;;;3.70;99.90;;;;;;5089053;28;20526;-68
2022/01/25 09:10:52;;;;;;;65.47;33.53;;;3.70;99.90;;;;;;5075666;28;20139;-69
2022/01/25 09:13:19;;;;;;;60.88;31.02;;;3.70;99.90;;;;;;5092752;28;20052;-67
2022/01/25 09:15:45;;;;;;;63.10;32.30;;;3.70;99.90;;;;;;5092445;28;20050;-69
2022/01/25 09:18:11;;;;;;;64.55;31.73;;;3.70;99.90;;;;;;5090827;28;20056;-67
2022/01/25 09:20:37;;;;;;;61.65;32.22;;;3.70;99.90;;;;;;5091430;28;20058;-67
2022/01/25 09:23:02;;;;;;;64.47;33.30;;;3.70;99.90;;;;;;5092216;28;20364;-71
2022/01/25 09:25:29;;;;;;;63.25;32.88;;;3.70;99.90;;;;;;5076820;28;20120;-68
2022/01/25 09:27:55;;;;;;;59.47;31.77;;;3.70;99.90;;;;;;5072691;28;20063;-69
2022/01/25 09:30:21;;;;;;;61.25;31.95;;;3.70;99.90;;;;;;5086660;28;20412;-71
2022/01/25 09:32:46;;;;;;;61.40;32.65;;;3.80;99.90;;;;;;5086964;28;20048;-68
2022/01/25 09:35:12;;;;;;;62.80;30.80;;;3.70;99.90;;;;;;5096055;28;20121;-69
2022/01/25 09:37:38;;;;;;;61.33;30.55;;;3.80;99.90;;;;;;5109451;27;20047;-68
2022/01/25 09:40:05;;;;;;;63.72;31.33;;;3.80;99.90;;;;;;5092084;28;20055;-68
2022/01/25 09:42:31;;;;;;;64.93;32.75;;;3.80;99.90;;;;;;5089930;28;20491;-69
2022/01/25 09:44:58;;;;;;;61.83;31.10;;;3.80;99.90;;;;;;5092482;28;20040;-68
2022/01/25 09:47:25;;;;;;;62.40;31.23;;;3.80;99.90;;;;;;5091738;28;20488;-68
2022/01/25 09:49:51;;;;;;;66.32;34.35;;;3.80;99.90;;;;;;5092416;28;20054;-68
2022/01/25 09:52:18;;;;;;;72.22;36.95;;;3.80;99.90;;;;;;5091829;28;20130;-68
2022/01/25 09:55:00;;;;;;;78.80;38.58;;;3.80;99.90;;;;;;5091377;28;20055;-68
2022/01/25 09:57:26;;;;;;;88.50;43.17;;;3.90;99.90;;;;;;5092042;28;20048;-68
2022/01/25 09:59:52;;;;;;;64.90;32.17;;;4.00;99.90;;;;;;5093036;28;20096;-69
2022/01/25 10:02:37;;;;;;;59.90;31.98;;;3.90;99.90;;;;;;5074855;28;20341;-67
2022/01/25 10:05:30;;;;;;;61.47;31.42;;;3.90;99.90;;;;;;5092009;28;20352;-70
2022/01/25 10:08:04;;;;;;;64.15;30.83;;;4.00;99.90;;;;;;5091387;28;20087;-70
2022/01/25 10:10:31;;;;;;;66.63;31.85;;;3.90;99.90;;;;;;5092671;28;20051;-70
2022/01/25 10:13:14;;;;;;;62.78;31.70;;;4.00;99.90;;;;;;5091353;28;20066;-69
2022/01/25 10:15:39;;;;;;;60.10;30.75;;;3.90;99.90;;;;;;5091622;28;20146;-68
2022/01/25 10:18:05;;;;;;;57.38;30.33;;;4.00;99.90;;;;;;5090735;28;20151;-68
2022/01/25 10:20:40;;;;;;;71.78;32.85;;;4.00;99.90;;;;;;5090668;28;20044;-71
2022/01/25 10:23:22;;;;;;;62.92;32.70;;;4.00;99.90;;;;;;5089932;28;20048;-69
2022/01/25 10:25:49;;;;;;;64.13;33.90;;;4.00;99.90;;;;;;5093066;28;20088;-68
2022/01/25 10:28:22;;;;;;;69.45;33.50;;;4.00;99.90;;;;;;5075056;28;20059;-71
2022/01/25 10:30:51;;;;;;;61.85;32.63;;;4.00;99.90;;;;;;5070971;28;20057;-71
2022/01/25 10:33:39;;;;;;;68.13;33.22;;;4.00;99.90;;;;;;5072395;28;20080;-69
2022/01/25 10:36:13;;;;;;;67.40;32.25;;;4.10;99.90;;;;;;5089826;28;20052;-69
2022/01/25 10:38:42;;;;;;;64.38;33.42;;;4.10;99.90;;;;;;5091139;28;20044;-68
2022/01/25 10:41:10;;;;;;;67.50;32.63;;;4.10;99.90;;;;;;5092808;28;20052;-68
2022/01/25 10:43:37;;;;;;;63.75;32.00;;;4.20;99.90;;;;;;5090354;28;20055;-69
2022/01/25 10:46:09;;;;;;;59.33;31.80;;;4.20;99.90;;;;;;5091416;28;20067;-70
2022/01/25 10:48:36;;;;;;;;;;;4.10;99.90;;;;;;5074888;28;20048;-68
2022/01/25 10:51:08;;;;;;;64.57;32.10;;;4.10;99.90;;;;;;5092499;28;19942;-67
2022/01/25 10:53:34;;;;;;;55.67;28.83;;;4.20;99.90;;;;;;5084293;28;20055;-68
2022/01/25 10:56:01;;;;;;;67.35;31.77;;;4.20;99.90;;;;;;5071071;28;20061;-69
2022/01/25 10:58:27;;;;;;;59.63;29.92;;;4.20;99.90;;;;;;5071136;28;20225;-70
2022/01/25 11:00:53;;;;;;;61.42;31.55;;;4.20;99.90;;;;;;5090152;28;20048;-68
2022/01/25 11:03:31;;;;;;;63.70;32.38;;;4.20;99.90;;;;;;5072602;28;20058;-70
2022/01/25 11:06:07;;;;;;;62.17;30.05;;;4.20;99.90;;;;;;5121938;28;20398;-68
2022/01/25 11:08:37;;;;;;;65.28;31.42;;;4.20;99.90;;;;;;5091455;28;20055;-68
2022/01/25 11:11:03;;;;;;;65.40;31.63;;;4.20;99.90;;;;;;5124326;28;20475;-68
2022/01/25 11:15:58;;;;;;;59.88;31.90;;;4.20;99.90;;;;;;5081412;28;20055;-69
2022/01/25 11:18:24;;;;;;;61.22;32.25;;;4.20;99.90;;;;;;5071040;28;20064;-69
2022/01/25 11:20:51;;;;;;;64.22;31.33;;;4.20;99.90;;;;;;5070944;28;20048;-68
2022/01/25 11:23:18;;;;;;;66.32;32.47;;;4.20;99.90;;;;;;5070760;28;20053;-69
2022/01/25 11:25:46;;;;;;;62.45;32.70;;;4.20;99.90;;;;;;5070009;28;20053;-68
2022/01/25 11:28:15;;;;;;;65.00;32.55;;;4.30;99.90;;;;;;5072793;28;20056;-71
2022/01/25 11:30:42;;;;;;;67.20;34.38;;;4.40;99.90;;;;;;5084628;28;20052;-69
2022/01/25 11:33:11;;;;;;;63.42;31.92;;;4.30;99.90;;;;;;5094285;28;20086;-69
2022/01/25 11:35:38;;;;;;;69.50;32.55;;;4.30;99.90;;;;;;5094404;28;20087;-68
2022/01/25 11:38:05;;;;;;;61.40;31.17;;;4.40;99.90;;;;;;5078016;28;20083;-70
2022/01/25 11:40:34;;;;;;;62.63;31.50;;;4.30;99.90;;;;;;5075030;28;20104;-67
2022/01/25 11:43:07;;;;;;;61.88;31.17;;;4.40;99.90;;;;;;5089577;28;20182;-69
2022/01/25 11:45:38;;;;;;;63.42;32.05;;;4.40;99.90;;;;;;5076316;28;20056;-69
2022/01/25 11:48:04;;;;;;;60.37;30.73;;;4.40;99.90;;;;;;5073108;28;20053;-69
2022/01/25 11:50:33;;;;;;;63.92;31.30;;;4.40;99.90;;;;;;5075150;28;20291;-70
2022/01/25 11:53:07;;;;;;;65.05;31.88;;;4.40;99.90;;;;;;5073547;28;20481;-68
2022/01/25 11:55:42;;;;;;;59.53;30.63;;;4.40;99.90;;;;;;5073715;28;20052;-71
2022/01/25 11:58:15;;;;;;;65.57;32.88;;;4.30;99.90;;;;;;5084998;28;20119;-69
2022/01/25 12:00:53;;;;;;;60.08;31.27;;;4.30;99.90;;;;;;5094668;28;20075;-68
2022/01/25 12:03:24;;;;;;;63.63;31.83;;;4.30;99.90;;;;;;5079488;28;20056;-68
2022/01/25 12:06:01;;;;;;;60.15;30.90;;;4.40;99.90;;;;;;5088145;28;20130;-69
2022/01/25 12:11:58;;;;;;;62.20;32.10;;;4.50;99.90;;;;;;5093888;28;20067;-69
2022/01/25 12:14:25;;;;;;;;;;;4.30;99.90;;;;;;5077464;28;20083;-70
2022/01/25 12:16:53;;;;;;;65.97;32.70;;;4.40;99.90;;;;;;5074353;28;19920;-69
2022/01/25 12:19:35;;;;;;;60.70;30.83;;;4.30;99.90;;;;;;5078936;28;20067;-69
2022/01/25 12:22:12;;;;;;;61.03;30.70;;;4.30;99.90;;;;;;5074656;28;20052;-69
2022/01/25 12:24:47;;;;;;;58.70;29.17;;;4.30;99.90;;;;;;5093836;28;20044;-70
2022/01/25 12:27:21;;;;;;;64.38;31.38;;;4.30;99.90;;;;;;5093855;28;20448;-70
2022/01/25 12:29:57;;;;;;;61.65;30.67;;;4.40;99.90;;;;;;5093608;28;20484;-70
2022/01/25 12:32:30;;;;;;;58.78;30.77;;;4.40;99.90;;;;;;5093746;28;20059;-68
2022/01/25 12:35:05;;;;;;;61.72;31.20;;;4.50;99.90;;;;;;5093934;28;20055;-68
2022/01/25 12:37:43;;;;;;;63.25;31.15;;;4.50;99.90;;;;;;5093061;28;20063;-69
2022/01/25 12:40:29;;;;;;;61.92;31.13;;;4.40;99.90;;;;;;5083067;28;20056;-68
2022/01/25 12:42:57;;;;;;;60.97;32.13;;;4.70;99.90;;;;;;5092826;28;20399;-69
2022/01/25 12:45:27;;;;;;;61.28;30.20;;;4.30;99.90;;;;;;5093225;28;20056;-70
2022/01/25 12:47:59;;;;;;;60.17;30.35;;;4.40;99.90;;;;;;5092804;28;20059;-69
2022/01/25 12:50:24;;;;;;;63.03;31.63;;;4.50;99.90;;;;;;5093885;28;20052;-71
2022/01/25 12:52:50;;;;;;;60.05;30.60;;;4.40;99.90;;;;;;5093615;28;20414;-68
2022/01/25 12:55:22;;;;;;;63.80;31.08;;;4.40;99.90;;;;;;5085542;28;20040;-68
2022/01/25 12:57:50;;;;;;;68.13;30.75;;;4.40;99.90;;;;;;5093395;28;20075;-70
2022/01/25 13:00:16;;;;;;;63.20;32.08;;;4.30;99.90;;;;;;5092392;28;20744;-70
2022/01/25 13:02:42;;;;;;;64.28;30.42;;;4.40;99.90;;;;;;5092432;28;20056;-69
2022/01/25 13:05:17;;;;;;;60.30;32.17;;;4.50;99.90;;;;;;5088571;28;20066;-70
2022/01/25 13:07:42;;;;;;;59.40;29.80;;;4.50;99.90;;;;;;5078607;28;20079;-69
2022/01/25 13:10:11;;;;;;;57.08;29.10;;;4.40;99.90;;;;;;5077584;28;20060;-68
2022/01/25 13:12:54;;;;;;;67.22;32.45;;;4.60;99.90;;;;;;5082519;28;20135;-69
2022/01/25 13:18:11;;;;;;;64.38;30.63;;;4.90;99.90;;;;;;5087491;28;20048;-70
2022/01/25 13:20:39;;;;;;;63.47;32.05;;;4.40;99.90;;;;;;5096092;28;20449;-69
2022/01/25 13:23:06;;;;;;;57.88;29.52;;;4.20;99.90;;;;;;5081294;28;20119;-69
2022/01/25 13:25:53;;;;;;;59.83;30.33;;;4.20;99.90;;;;;;5092252;28;20058;-68
2022/01/25 13:30:57;;;;;;;62.53;30.02;;;4.30;99.90;;;;;;5073070;28;20135;-70
2022/01/25 13:33:22;;;;;;;59.95;31.30;;;4.20;99.90;;;;;;5073428;28;20174;-68
2022/01/25 13:35:53;;;;;;;60.22;30.77;;;4.30;99.90;;;;;;5101946;28;20058;-69
2022/01/25 13:38:20;;;;;;;63.30;30.17;;;4.30;99.90;;;;;;5092702;28;20044;-70
2022/01/25 13:46:09;;;;;;;61.53;30.42;;;4.30;99.90;;;;;;5072448;28;20794;-70
2022/01/25 13:48:36;;;;;;;64.88;31.00;;;4.30;99.90;;;;;;5073419;28;20534;-68
2022/01/25 13:51:10;;;;;;;54.60;28.95;;;4.30;99.90;;;;;;5087693;28;20373;-68
2022/01/25 13:53:37;;;;;;;67.35;33.17;;;4.30;99.90;;;;;;5092548;28;20510;-68
2022/01/25 13:56:06;;;;;;;64.18;30.00;;;4.30;99.90;;;;;;5074898;28;20079;-70
2022/01/25 13:58:45;;;;;;;63.97;31.00;;;4.30;99.90;;;;;;5092058;28;20060;-71
2022/01/25 14:01:37;;;;;;;61.55;31.13;;;4.30;99.90;;;;;;5093025;28;20056;-69
2022/01/25 14:04:21;;;;;;;62.38;31.73;;;4.30;99.90;;;;;;5093317;28;20056;-68
2022/01/25 14:06:52;;;;;;;63.15;30.80;;;4.30;99.90;;;;;;5090075;28;20060;-69
2022/01/25 14:09:48;;;;;;;61.78;29.85;;;4.30;99.90;;;;;;5091864;28;20052;-70
2022/01/25 14:25:43;;;;;;;63.10;31.35;;;4.20;99.90;;;;;;5091752;28;20055;-68
2022/01/25 14:28:16;;;;;;;60.30;29.50;;;4.30;99.90;;;;;;5090686;28;20048;-69
2022/01/25 14:30:48;;;;;;;62.42;32.05;;;4.20;99.90;;;;;;5092448;28;20076;-70
2022/01/25 14:33:16;;;;;;;62.17;30.25;;;4.20;99.90;;;;;;5091294;28;20492;-69
2022/01/25 14:35:47;;;;;;;65.30;30.15;;;4.20;99.90;;;;;;5091578;28;20067;-69
2022/01/25 14:38:34;;;;;;;61.60;30.80;;;4.20;99.90;;;;;;5125602;27;20052;-69
2022/01/25 14:41:14;;;;;;;60.67;30.00;;;4.20;99.90;;;;;;5091417;28;20488;-70
2022/01/25 14:43:47;;;;;;;59.97;29.77;;;4.20;99.90;;;;;;5092023;28;20070;-69
2022/01/25 14:46:17;;;;;;;60.05;29.67;;;4.30;99.90;;;;;;5090867;28;20052;-69
2022/01/25 14:48:45;;;;;;;62.80;30.85;;;4.20;99.90;;;;;;5091358;28;20048;-71
2022/01/25 14:51:12;;;;;;;62.47;30.38;;;4.20;99.90;;;;;;5092743;28;20047;-69
2022/01/25 14:53:43;;;;;;;58.53;29.27;;;4.20;99.90;;;;;;5089764;28;20365;-69
2022/01/25 14:56:12;;;;;;;61.60;29.77;;;4.20;99.90;;;;;;5087395;28;20048;-69
2022/01/25 15:01:22;;;;;;;59.15;29.48;;;4.10;99.90;;;;;;5082484;28;20052;-69
2022/01/25 15:03:49;;;;;;;58.42;28.33;;;4.10;99.90;;;;;;5071915;28;20062;-68